Valinhos, Brazil
Current Conditions -  °F | °C
As of 12:00 AM on Saturday 25 Oct 2014 (Local Time) from SBKP Reporting Station
Haze Haze  
Wind Chill: 70°   Ceiling: Unl
Heat Index: 70°   Visibility: 3mi
Dew Point: 63°   Wind: 7mph
Humidity: 78%   Direction: 120°ESE
Pressure: 30.03"   Gusts: NA
Location:  22.97°S, 47°W
Report Text: SBKP 250200Z 12006KT 5000 HZ NSC 21/17 Q1017
Loading
Personal Weather Stations






























Interactive Weather Map
Tropical Storm Tracking
New forecast layout! Learn more

10-Day Weather Forecast

Advertisements
Track Severe Weather on mobile